Bridgewater, South Dakota
Current Conditions -  °F | °C
As of 10:53 PM on Thursday 27 Nov 2014 (Local Time) from KMHE Reporting Station
Overcast Overcast  
Wind Chill:   Ceiling: 11000
Heat Index: 22°   Visibility: 10mi
Dew Point: 15°   Wind: 16mph
Humidity: 75%   Direction: 150°SSE
Pressure: 29.98"   Gusts: NA
Location:  43.55°N, 97.51°W
Report Text: KMHE 280453Z AUTO 15014KT 10SM OVC110 M06/M09 A2998 RMK AO2 SLP175 T10561094 $
Loading
Personal Weather Stations






























Interactive Weather Map New forecast layout! Learn more

10-Day Weather Forecast

Advertisements
Track Severe Weather on mobile